GAFD weather

Faladie Airport
Faladie, Koulikoro Region, Mali

Public forecast

Using degrees Celsius for public forecast. Weather courtesy of forecast.io.

Closest aviation weather report (METAR) to Faladie Airport

Closest report is Modibo Keita International Airport, 43.3 nm (80.1 km) SSE. Retrieved 2020/02/28 21:00 UTC (12 minutes ago):

GABS 282100Z 07007KT 8000 NSC 30/M01 Q1014 NOSIG

Closest aviation forecast (TAF) to Faladie Airport

Closest forecast is Modibo Keita International Airport, 43.3 nm (80.1 km) SSE. Retrieved 2020/02/28 18:00 UTC (3 hours ago):

TAF GABS 281700Z 2818/2924 08005G15KT 8000 NSC PROB40 TEMPO 2906/2916 4000 DU